Time;durP1;ratioP1;P1;durP2;ratioP2;P2;SDS_P1;SDS_P2;PMS_P1;PMS_P2;Temp;Humidity;BMP_temperature;BMP_pressure;BME280_temperature;BME280_humidity;BME280_pressure;Samples;Min_cycle;Max_cycle;Signal;HPM_P1;HPM_P2
2022/05/01 00:00:51;;;;;;;34.77;16.80;;;;;;;7.42;70.05;100498.47;4177940;28;20260;-68
2022/05/01 00:03:36;;;;;;;44.27;19.53;;;;;;;7.50;69.52;100500.53;4186933;28;20236;-69
2022/05/01 00:06:05;;;;;;;40.27;19.27;;;;;;;7.57;69.02;100499.06;4164386;28;20706;-71
2022/05/01 00:08:31;;;;;;;41.33;18.97;;;;;;;7.37;69.88;100493.59;4181637;28;20234;-71
2022/05/01 00:11:00;;;;;;;45.20;20.93;;;;;;;7.38;70.12;100491.75;4190833;28;20249;-68
2022/05/01 00:13:43;;;;;;;53.93;20.10;;;;;;;7.21;71.46;100494.91;4169892;28;20645;-68
2022/05/01 00:16:10;;;;;;;43.57;19.13;;;;;;;7.11;72.21;100495.63;4184560;28;20224;-70
2022/05/01 00:18:37;;;;;;;38.60;18.00;;;;;;;7.21;71.33;100486.97;4179947;28;20259;-68
2022/05/01 00:21:04;;;;;;;40.63;19.20;;;;;;;7.15;71.27;100483.84;4140371;28;23054;-69
2022/05/01 00:23:30;;;;;;;41.13;18.17;;;;;;;7.07;71.94;100480.97;4174738;28;20688;-68
2022/05/01 00:25:58;;;;;;;43.07;18.53;;;;;;;7.11;72.19;100487.69;4182667;28;24008;-68
2022/05/01 00:28:24;;;;;;;45.10;19.37;;;;;;;7.15;72.19;100488.31;4172039;28;22314;-69
2022/05/01 00:30:51;;;;;;;41.13;17.77;;;;;;;7.05;72.75;100487.34;4199262;28;26697;-70
2022/05/01 00:38:48;;;;;;;38.97;17.97;;;;;;;6.97;73.69;100483.47;4192317;28;21067;-70
2022/05/01 00:41:15;;;;;;;37.80;17.93;;;;;;;6.98;73.65;100487.00;4176130;28;20233;-70
2022/05/01 00:43:58;;;;;;;44.97;18.27;;;;;;;7.01;73.65;100481.44;4164901;28;20245;-71
2022/05/01 00:46:24;;;;;;;36.10;17.83;;;;;;;7.06;72.90;100486.38;4171939;28;20470;-69
2022/05/01 00:48:52;;;;;;;40.10;17.37;;;;;;;7.16;72.59;100482.91;4175706;28;22052;-69
2022/05/01 00:51:22;;;;;;;41.90;18.40;;;;;;;7.29;72.22;100484.56;4178831;28;20398;-70
2022/05/01 00:53:49;;;;;;;43.47;17.57;;;;;;;7.45;71.03;100486.81;4162876;28;20246;-69
2022/05/01 00:56:16;;;;;;;36.83;16.60;;;;;;;7.52;70.36;100480.91;4171758;28;20674;-69
2022/05/01 00:58:43;;;;;;;36.37;17.30;;;;;;;7.40;71.16;100482.75;4179208;28;20282;-70
2022/05/01 01:01:14;;;;;;;37.40;17.47;;;;;;;7.25;72.64;100475.16;4176003;28;20234;-68
2022/05/01 01:03:41;;;;;;;37.60;17.90;;;;;;;7.09;72.90;100476.38;4168188;28;22875;-69
2022/05/01 01:06:07;;;;;;;43.60;17.53;;;;;;;7.17;72.86;100476.63;4162384;28;20238;-71
2022/05/01 01:08:34;;;;;;;31.70;15.83;;;;;;;7.31;71.99;100485.28;4166788;28;20897;-69
2022/05/01 01:11:00;;;;;;;34.60;16.67;;;;;;;7.32;72.09;100481.66;4172113;28;20700;-69
2022/05/01 01:13:28;;;;;;;38.00;16.50;;;;;;;7.24;71.96;100482.28;4183829;28;20233;-69
2022/05/01 01:15:57;;;;;;;38.63;16.07;;;;;;;7.21;73.20;100479.03;4173876;28;20273;-70
2022/05/01 01:18:26;;;;;;;31.07;16.70;;;;;;;7.38;72.28;100483.81;4163435;28;21652;-69
2022/05/01 01:20:53;;;;;;;33.67;17.60;;;;;;;7.07;74.14;100477.47;4166910;28;20242;-69
2022/05/01 01:23:20;;;;;;;40.10;17.60;;;;;;;6.96;74.71;100478.34;4160809;28;20332;-70
2022/05/01 01:25:47;;;;;;;30.93;15.50;;;;;;;7.16;73.91;100484.69;4171800;28;20233;-70
2022/05/01 01:28:14;;;;;;;28.93;15.30;;;;;;;7.34;73.43;100480.56;4173508;28;23655;-69
2022/05/01 01:33:29;;;;;;;35.03;16.53;;;;;;;7.07;74.57;100480.97;4200405;28;20237;-70
2022/05/01 01:36:01;;;;;;;30.60;16.03;;;;;;;6.91;75.18;100476.03;4178192;28;20245;-69
2022/05/01 01:38:27;;;;;;;34.40;16.33;;;;;;;6.87;75.77;100479.06;4174753;28;21586;-69
2022/05/01 01:40:57;;;;;;;37.93;17.30;;;;;;;6.97;75.67;100480.00;4166917;28;23610;-69
2022/05/01 01:43:28;;;;;;;30.10;16.40;;;;;;;6.92;75.80;100477.72;4169074;28;22434;-68
2022/05/01 01:45:58;;;;;;;37.40;16.87;;;;;;;6.76;76.70;100470.13;4187858;28;20249;-68
2022/05/01 01:48:25;;;;;;;32.00;15.83;;;;;;;6.64;78.12;100465.81;4171194;28;20289;-69
2022/05/01 01:50:57;;;;;;;30.50;14.73;;;;;;;6.59;78.40;100470.63;4165991;28;20260;-69
2022/05/01 01:53:25;;;;;;;32.73;16.23;;;;;;;6.59;79.07;100467.97;4175858;28;21453;-68
2022/05/01 01:55:52;;;;;;;30.47;15.80;;;;;;;6.50;78.49;100474.78;4169503;28;20344;-69
2022/05/01 01:58:19;;;;;;;31.00;15.17;;;;;;;6.52;78.96;100469.41;4173487;28;22593;-70
2022/05/01 02:00:46;;;;;;;33.77;15.80;;;;;;;6.44;79.69;100467.34;4169541;28;22664;-69
2022/05/01 02:03:12;;;;;;;32.23;14.37;;;;;;;6.41;79.61;100464.09;4174287;28;20241;-69
2022/05/01 02:05:39;;;;;;;33.70;15.70;;;;;;;6.41;80.05;100466.75;4175738;28;23650;-69
2022/05/01 02:08:06;;;;;;;32.90;15.73;;;;;;;6.43;80.02;100462.19;4174464;28;20692;-69
2022/05/01 02:10:32;;;;;;;31.93;14.60;;;;;;;6.55;79.32;100458.59;4179602;28;20245;-68
2022/05/01 02:13:00;;;;;;;29.93;14.53;;;;;;;6.65;78.41;100459.56;4163692;28;20561;-69
2022/05/01 02:15:32;;;;;;;29.50;14.80;;;;;;;6.65;78.49;100464.88;4171996;28;20241;-67
2022/05/01 02:18:00;;;;;;;30.67;15.00;;;;;;;6.68;78.53;100472.56;4174051;28;20974;-69
2022/05/01 02:20:28;;;;;;;31.03;14.97;;;;;;;6.63;78.83;100468.59;4172709;28;22077;-68
2022/05/01 02:22:54;;;;;;;29.90;14.57;;;;;;;6.60;78.33;100476.75;4193559;28;21200;-68
2022/05/01 02:25:21;;;;;;;27.20;14.70;;;;;;;6.69;78.39;100466.28;4174387;28;20292;-68
2022/05/01 02:27:48;;;;;;;31.83;14.77;;;;;;;6.69;78.62;100470.75;4177314;28;20240;-69
2022/05/01 02:30:14;;;;;;;24.63;13.80;;;;;;;6.69;78.63;100471.56;4177635;28;21259;-68
2022/05/01 02:32:41;;;;;;;28.37;15.73;;;;;;;6.67;78.61;100470.88;4171747;28;20238;-68
2022/05/01 02:35:09;;;;;;;31.00;15.70;;;;;;;6.68;78.82;100464.63;4185602;28;20357;-69
2022/05/01 02:37:35;;;;;;;29.37;14.83;;;;;;;6.68;78.59;100463.78;4167890;28;25606;-69
2022/05/01 02:40:04;;;;;;;30.30;14.27;;;;;;;6.73;78.01;100465.09;4194444;28;21806;-69
2022/05/01 02:42:30;;;;;;;28.03;14.50;;;;;;;6.76;78.76;100466.66;4161378;28;20304;-69
2022/05/01 02:44:59;;;;;;;30.67;14.37;;;;;;;6.74;78.67;100465.94;4158089;28;23198;-68
2022/05/01 02:47:25;;;;;;;30.77;14.90;;;;;;;6.70;78.59;100462.69;4177274;28;21496;-69
2022/05/01 02:49:52;;;;;;;30.10;14.43;;;;;;;6.74;78.69;100464.16;4169936;28;20716;-68
2022/05/01 02:52:18;;;;;;;28.60;14.47;;;;;;;6.73;78.50;100461.63;4193154;28;22164;-69
2022/05/01 02:54:46;;;;;;;31.00;14.63;;;;;;;6.66;80.00;100466.53;4177253;28;20249;-69
2022/05/01 02:57:13;;;;;;;30.23;14.93;;;;;;;6.68;79.51;100464.63;4194939;28;20237;-69
2022/05/01 02:59:40;;;;;;;29.97;14.73;;;;;;;6.62;79.32;100470.38;4173086;28;20298;-67
2022/05/01 03:02:07;;;;;;;29.53;15.30;;;;;;;6.52;80.61;100472.06;4182424;28;20288;-70
2022/05/01 03:04:34;;;;;;;26.90;13.97;;;;;;;6.44;81.67;100470.00;4165306;28;20341;-69
2022/05/01 03:07:01;;;;;;;28.17;15.33;;;;;;;6.32;81.97;100466.50;4179629;28;21645;-68
2022/05/01 03:09:30;;;;;;;33.10;15.07;;;;;;;6.41;81.96;100472.84;4187111;28;20226;-68
2022/05/01 03:11:57;;;;;;;25.53;14.20;;;;;;;6.39;81.39;100474.81;4177957;28;20264;-68
2022/05/01 03:14:23;;;;;;;28.10;15.07;;;;;;;6.37;81.56;100470.56;4171032;28;21585;-68
2022/05/01 03:16:51;;;;;;;30.40;14.97;;;;;;;6.41;81.77;100467.56;4160581;28;20238;-69
2022/05/01 03:22:13;;;;;;;32.30;14.80;;;;;;;6.27;81.62;100473.91;4180168;28;21319;-68
2022/05/01 03:24:41;;;;;;;34.53;15.80;;;;;;;6.21;82.39;100471.75;4192574;28;20232;-69
2022/05/01 03:27:09;;;;;;;32.80;15.50;;;;;;;6.28;81.24;100467.69;4189067;28;25296;-70
2022/05/01 03:29:37;;;;;;;28.37;14.73;;;;;;;6.20;81.64;100466.56;4194324;28;21236;-69
2022/05/01 03:32:07;;;;;;;31.83;15.37;;;;;;;6.09;82.86;100477.97;4232396;28;20327;-68
2022/05/01 03:34:37;;;;;;;26.33;14.30;;;;;;;6.22;82.27;100472.59;4184912;28;22422;-69
2022/05/01 03:37:06;;;;;;;31.77;14.03;;;;;;;6.21;81.97;100476.19;4220837;28;20243;-68
2022/05/01 03:39:35;;;;;;;29.60;14.60;;;;;;;6.22;81.56;100468.13;4200584;28;21949;-70
2022/05/01 03:42:02;;;;;;;27.33;13.80;;;;;;;6.33;81.17;100468.16;4186768;29;20494;-70
2022/05/01 03:44:29;;;;;;;24.97;14.17;;;;;;;6.34;81.07;100475.16;4173069;28;20421;-71
2022/05/01 03:46:56;;;;;;;24.97;14.33;;;;;;;6.46;81.04;100481.31;4185255;28;21421;-72
2022/05/01 03:49:23;;;;;;;29.27;14.47;;;;;;;6.47;80.69;100472.41;4192902;28;20380;-70
2022/05/01 03:51:49;;;;;;;29.07;14.10;;;;;;;6.45;81.24;100470.84;4203913;28;26020;-70
2022/05/01 03:54:16;;;;;;;27.50;14.20;;;;;;;6.52;80.40;100472.06;4185649;28;20842;-69
2022/05/01 03:56:45;;;;;;;29.63;14.30;;;;;;;6.60;80.96;100476.75;4201756;28;20236;-70
2022/05/01 03:59:12;;;;;;;29.63;14.80;;;;;;;6.67;81.00;100475.31;4196807;28;20881;-70
2022/05/01 04:01:39;;;;;;;27.53;13.53;;;;;;;6.61;80.92;100473.97;4182312;28;22373;-69
2022/05/01 04:04:06;;;;;;;29.77;13.57;;;;;;;6.61;80.61;100471.34;4186880;28;21326;-69
2022/05/01 04:06:32;;;;;;;30.33;14.40;;;;;;;6.40;81.74;100476.47;4170013;28;20232;-71
2022/05/01 04:09:00;;;;;;;29.23;14.13;;;;;;;6.27;83.10;100468.63;4191403;28;26700;-68
2022/05/01 04:11:26;;;;;;;27.63;13.80;;;;;;;6.24;83.33;100466.22;4192192;28;22392;-70
2022/05/01 04:13:53;;;;;;;29.23;14.40;;;;;;;6.42;82.34;100471.09;4155335;28;20238;-71
2022/05/01 04:16:20;;;;;;;24.97;13.80;;;;;;;6.46;81.71;100469.88;4186756;28;20713;-70
2022/05/01 04:18:46;;;;;;;25.30;13.43;;;;;;;6.50;81.96;100472.16;4166931;28;21685;-70
2022/05/01 04:21:13;;;;;;;22.90;12.03;;;;;;;6.70;81.36;100478.56;4187526;28;20316;-70
2022/05/01 04:23:40;;;;;;;29.57;13.50;;;;;;;6.71;80.83;100480.22;4202909;28;20333;-69
2022/05/01 04:26:07;;;;;;;24.07;12.97;;;;;;;6.75;80.97;100475.56;4169657;28;20315;-69
2022/05/01 04:28:34;;;;;;;25.17;12.50;;;;;;;6.82;81.00;100473.28;4183323;28;21704;-71
2022/05/01 04:31:01;;;;;;;22.97;11.70;;;;;;;6.86;80.54;100475.56;4190821;28;20239;-68
2022/05/01 04:33:27;;;;;;;27.03;13.30;;;;;;;6.95;80.45;100474.00;4188096;28;25311;-70
2022/05/01 04:35:54;;;;;;;25.10;11.70;;;;;;;7.06;80.30;100483.75;4180705;28;20763;-67
2022/05/01 04:38:23;;;;;;;20.83;11.83;;;;;;;7.16;79.37;100485.53;4181507;28;21247;-69
2022/05/01 04:40:58;;;;;;;27.27;12.23;;;;;;;7.28;79.30;100481.06;4185995;28;20793;-68
2022/05/01 04:43:26;;;;;;;25.67;11.87;;;;;;;7.50;77.78;100484.66;4171946;28;20740;-68
2022/05/01 04:45:54;;;;;;;25.17;12.50;;;;;;;7.53;77.61;100485.22;4177733;28;21161;-68
2022/05/01 04:48:23;;;;;;;20.80;11.57;;;;;;;7.72;75.92;100489.84;4172123;28;20240;-72
2022/05/01 04:50:50;;;;;;;19.47;10.53;;;;;;;7.91;75.27;100494.50;4177320;28;20236;-69
2022/05/01 04:53:17;;;;;;;18.87;9.83;;;;;;;8.03;74.21;100492.66;4175870;28;20240;-69
2022/05/01 04:55:47;;;;;;;22.17;11.40;;;;;;;8.06;75.30;100487.09;4177262;28;20246;-71
2022/05/01 04:58:17;;;;;;;18.43;10.40;;;;;;;8.13;74.22;100485.63;4197812;28;20237;-70
2022/05/01 05:00:44;;;;;;;19.83;10.77;;;;;;;8.20;73.89;100489.44;4188764;28;20229;-69
2022/05/01 05:03:12;;;;;;;20.47;10.40;;;;;;;8.26;73.14;100485.41;4184889;28;20302;-68
2022/05/01 05:05:39;;;;;;;18.23;9.90;;;;;;;8.35;72.85;100483.81;4163846;28;21764;-69
2022/05/01 05:10:51;;;;;;;18.67;9.80;;;;;;;8.76;71.60;100493.59;4201159;28;20314;-69
2022/05/01 05:13:24;;;;;;;19.77;10.47;;;;;;;8.78;71.36;100494.31;4182351;28;20281;-68
2022/05/01 05:15:51;;;;;;;20.03;10.63;;;;;;;8.83;70.44;100496.56;4176460;28;20244;-67
2022/05/01 05:18:17;;;;;;;19.60;10.73;;;;;;;8.86;70.11;100491.81;4215192;28;20245;-68
2022/05/01 05:20:44;;;;;;;18.80;9.97;;;;;;;8.98;69.61;100491.72;4183590;28;20644;-67
2022/05/01 05:23:11;;;;;;;20.70;10.53;;;;;;;8.99;69.75;100494.25;4168695;28;22379;-67
2022/05/01 05:25:37;;;;;;;20.87;10.30;;;;;;;9.04;69.45;100489.38;4193204;28;20848;-68
2022/05/01 05:28:07;;;;;;;17.33;9.30;;;;;;;9.35;68.64;100499.13;4202541;28;20236;-68
2022/05/01 05:30:35;;;;;;;17.77;9.03;;;;;;;9.56;68.15;100504.34;4181655;28;21561;-67
2022/05/01 05:33:05;;;;;;;18.07;9.93;;;;;;;9.59;67.71;100498.75;4179714;28;23043;-69
2022/05/01 05:35:31;;;;;;;19.53;9.57;;;;;;;9.60;66.98;100501.28;4218045;28;20649;-69
2022/05/01 05:37:58;;;;;;;17.27;9.13;;;;;;;9.70;66.81;100488.84;4169037;28;21619;-66
2022/05/01 05:40:25;;;;;;;15.50;9.00;;;;;;;9.86;66.75;100506.91;4194969;28;20310;-68
2022/05/01 05:42:51;;;;;;;19.13;9.73;;;;;;;9.86;65.94;100503.44;4206489;28;23547;-70
2022/05/01 05:45:17;;;;;;;17.63;9.80;;;;;;;10.03;65.29;100501.88;4186009;28;20233;-70
2022/05/01 05:47:44;;;;;;;15.20;9.20;;;;;;;10.27;63.47;100504.94;4201800;28;21246;-68
2022/05/01 05:50:11;;;;;;;18.40;8.50;;;;;;;10.65;63.02;100505.06;4219334;28;20287;-71
2022/05/01 05:52:37;;;;;;;18.03;9.40;;;;;;;10.87;61.85;100507.38;4180139;28;20233;-69
2022/05/01 05:55:04;;;;;;;19.80;10.17;;;;;;;11.07;61.43;100513.47;4193842;28;20241;-70
2022/05/01 05:57:31;;;;;;;20.17;8.73;;;;;;;11.27;59.52;100511.56;4184044;28;21180;-69
2022/05/01 05:59:57;;;;;;;15.73;8.77;;;;;;;12.29;57.13;100533.66;4201247;28;21778;-72
2022/05/01 06:02:24;;;;;;;14.47;8.53;;;;;;;13.52;53.21;100530.75;4164377;28;20333;-72
2022/05/01 06:04:51;;;;;;;16.00;7.90;;;;;;;14.77;48.17;100542.31;4182363;28;20247;-72
2022/05/01 06:07:17;;;;;;;13.70;7.77;;;;;;;15.94;42.64;100552.44;4192834;28;20237;-71
2022/05/01 06:09:44;;;;;;;11.67;7.10;;;;;;;16.82;39.74;100561.88;4187901;28;20303;-70
2022/05/01 06:12:11;;;;;;;19.30;7.60;;;;;;;16.81;39.50;100560.19;4169420;28;20440;-71
2022/05/01 06:14:39;;;;;;;12.20;7.47;;;;;;;17.50;37.13;100565.31;4180160;28;20233;-72
2022/05/01 06:17:06;;;;;;;15.07;7.50;;;;;;;18.30;35.98;100567.09;4186962;28;20237;-71
2022/05/01 06:19:32;;;;;;;18.93;7.03;;;;;;;18.86;34.03;100566.34;4193139;28;20229;-71
2022/05/01 06:21:59;;;;;;;15.70;7.33;;;;;;;19.06;33.18;100576.44;4193664;28;20237;-74
2022/05/01 06:24:26;;;;;;;14.70;6.60;;;;;;;20.12;31.93;100582.38;4201927;28;20307;-71
2022/05/01 06:26:52;;;;;;;14.10;6.30;;;;;;;21.49;29.96;100588.22;4240564;28;20367;-73
2022/05/01 06:29:19;;;;;;;13.13;7.40;;;;;;;23.09;27.20;100598.97;4209441;28;20232;-73
2022/05/01 06:31:46;;;;;;;13.53;7.30;;;;;;;23.78;26.50;100602.38;4196357;28;20834;-73
2022/05/01 06:34:13;;;;;;;15.90;7.43;;;;;;;23.35;26.45;100599.75;4223309;28;20244;-73
2022/05/01 06:36:40;;;;;;;15.10;6.93;;;;;;;23.12;27.20;100598.50;4211395;28;20842;-73
2022/05/01 06:39:09;;;;;;;12.80;6.97;;;;;;;24.77;24.25;100602.06;4193464;28;20246;-74
2022/05/01 06:41:35;;;;;;;16.50;7.80;;;;;;;24.37;24.50;100594.50;4215665;28;20233;-71
2022/05/01 06:44:02;;;;;;;11.33;6.60;;;;;;;24.52;23.72;100602.25;4231480;28;20650;-74
2022/05/01 06:46:28;;;;;;;12.50;6.80;;;;;;;25.28;22.70;100607.88;4215427;28;20240;-72
2022/05/01 06:48:58;;;;;;;8.87;5.90;;;;;;;25.93;21.61;100615.00;4225333;28;21694;-79
2022/05/01 06:51:25;;;;;;;10.80;5.60;;;;;;;26.35;20.65;100609.25;4219662;28;20309;-75
2022/05/01 06:53:51;;;;;;;9.20;5.60;;;;;;;26.10;19.88;100607.69;4212473;28;20410;-72
2022/05/01 06:56:18;;;;;;;13.03;6.80;;;;;;;25.20;21.58;100608.25;4211028;28;21773;-74
2022/05/01 06:58:44;;;;;;;10.17;5.30;;;;;;;25.69;21.77;100612.31;4206174;28;20303;-73
2022/05/01 07:01:11;;;;;;;8.27;5.37;;;;;;;27.69;19.53;100617.63;4219565;28;23994;-73
2022/05/01 07:03:40;;;;;;;10.57;5.50;;;;;;;28.47;17.59;100611.97;4226823;28;21608;-72
2022/05/01 07:06:07;;;;;;;11.37;5.83;;;;;;;27.93;17.79;100616.31;4196369;28;20248;-73
2022/05/01 07:08:33;;;;;;;11.43;5.70;;;;;;;27.01;18.56;100606.00;4203982;28;20283;-75
2022/05/01 07:11:00;;;;;;;10.83;5.37;;;;;;;25.56;19.72;100600.84;4194429;28;21255;-75
2022/05/01 07:13:26;;;;;;;6.53;4.67;;;;;;;23.91;20.55;100590.53;4214895;28;21612;-75
2022/05/01 07:15:53;;;;;;;8.50;5.10;;;;;;;23.18;22.17;100585.94;4192204;28;21678;-73
2022/05/01 07:18:20;;;;;;;8.90;4.73;;;;;;;22.31;22.93;100586.63;4213475;28;20331;-75
2022/05/01 07:20:47;;;;;;;15.93;5.80;;;;;;;21.35;24.94;100576.56;4205694;28;21587;-74
2022/05/01 07:23:13;;;;;;;8.90;5.37;;;;;;;22.44;24.23;100576.72;4222728;28;20260;-74
2022/05/01 07:25:40;;;;;;;12.10;5.43;;;;;;;23.46;22.69;100581.84;4238513;28;20242;-75
2022/05/01 07:28:07;;;;;;;11.33;5.37;;;;;;;24.42;21.75;100583.75;4238994;28;21600;-75
2022/05/01 07:30:33;;;;;;;9.17;4.53;;;;;;;25.16;19.76;100591.50;4217688;28;20228;-74
2022/05/01 07:33:00;;;;;;;9.83;4.43;;;;;;;24.59;20.54;100589.34;4243283;28;20299;-73
2022/05/01 07:35:27;;;;;;;9.53;4.07;;;;;;;24.73;20.10;100592.69;4254387;28;20237;-78
2022/05/01 07:38:00;;;;;;;8.73;4.40;;;;;;;24.59;20.46;100591.25;4222845;28;20292;-75
2022/05/01 07:40:27;;;;;;;9.47;4.47;;;;;;;23.53;21.51;100588.03;4220735;28;20336;-75
2022/05/01 07:42:53;;;;;;;11.97;4.73;;;;;;;22.76;22.43;100588.38;4208872;28;20230;-73
2022/05/01 07:45:20;;;;;;;8.67;4.50;;;;;;;23.01;22.15;100580.22;4203807;28;20233;-73
2022/05/01 07:47:46;;;;;;;16.80;8.13;;;;;;;22.24;22.64;100575.00;4228667;28;20910;-73
2022/05/01 07:50:14;;;;;;;6.47;4.10;;;;;;;21.21;23.86;100575.78;4223769;28;21917;-74
2022/05/01 07:52:41;;;;;;;7.90;4.80;;;;;;;20.07;25.96;100565.13;4192027;28;22118;-74
2022/05/01 07:55:07;;;;;;;6.80;3.63;;;;;;;19.70;26.35;100562.72;4218212;28;20246;-72
2022/05/01 07:57:34;;;;;;;7.83;4.27;;;;;;;19.79;26.29;100558.81;4217038;28;20332;-72
2022/05/01 08:00:02;;;;;;;10.97;4.23;;;;;;;19.76;26.39;100550.25;4217891;28;25804;-73
2022/05/01 08:04:27;;;;;;;9.13;3.60;;;;;;;20.08;25.94;100546.00;4209908;28;20233;-71
2022/05/01 08:05:27;;;;;;;7.93;3.57;;;;;;;19.99;25.36;100548.06;4226446;28;22231;-71
2022/05/01 08:07:54;;;;;;;6.97;3.47;;;;;;;19.84;25.60;100539.28;4232944;28;26145;-77
2022/05/01 08:10:21;;;;;;;8.33;3.63;;;;;;;19.97;25.56;100549.28;4209835;28;20323;-75
2022/05/01 08:12:48;;;;;;;8.03;4.00;;;;;;;19.71;25.93;100544.63;4212670;28;20588;-74
2022/05/01 08:15:17;;;;;;;7.40;3.50;;;;;;;19.90;25.46;100538.50;4210263;28;20292;-72
2022/05/01 08:17:45;;;;;;;7.63;4.00;;;;;;;19.51;26.39;100541.84;4202698;28;20245;-70
2022/05/01 08:23:04;;;;;;;7.13;3.63;;;;;;;20.10;25.23;100546.63;4202006;28;22880;-78
2022/05/01 08:25:31;;;;;;;5.60;3.40;;;;;;;20.24;24.93;100548.31;4182585;28;21795;-73
2022/05/01 08:27:59;;;;;;;5.90;3.27;;;;;;;20.65;24.60;100550.03;4192085;28;20230;-72
2022/05/01 08:30:26;;;;;;;8.23;3.77;;;;;;;19.56;26.58;100542.06;4232593;28;20228;-74
2022/05/01 08:32:53;;;;;;;8.73;3.80;;;;;;;19.98;26.86;100542.88;4213475;28;20306;-80
2022/05/01 08:35:19;;;;;;;8.50;3.80;;;;;;;19.47;26.00;100529.78;4208591;28;21576;-79
2022/05/01 08:37:46;;;;;;;7.23;3.60;;;;;;;19.40;25.75;100535.97;4195480;28;20243;-75
2022/05/01 08:40:15;;;;;;;8.57;3.83;;;;;;;19.25;25.92;100537.97;4180066;28;20234;-74
2022/05/01 08:42:45;;;;;;;9.33;3.43;;;;;;;19.56;26.63;100529.41;4198661;28;21243;-74
2022/05/01 08:45:13;;;;;;;9.43;4.07;;;;;;;19.86;25.87;100531.00;4196173;28;20232;-77
2022/05/01 08:47:50;;;;;;;7.03;3.40;;;;;;;19.62;26.33;100530.47;4233437;28;20233;-78
2022/05/01 08:50:17;;;;;;;5.33;3.40;;;;;;;19.77;24.85;100525.78;4261395;28;20241;-74
2022/05/01 08:52:45;;;;;;;6.77;3.50;;;;;;;20.26;25.30;100525.66;4199116;28;20868;-75
2022/05/01 08:55:14;;;;;;;9.47;3.87;;;;;;;20.31;24.37;100517.78;4183144;28;20226;-71
2022/05/01 08:57:41;;;;;;;7.73;3.40;;;;;;;19.85;25.15;100526.63;4193820;28;25819;-73
2022/05/01 09:00:14;;;;;;;7.20;3.20;;;;;;;19.92;25.23;100524.75;4206057;28;20416;-72
2022/05/01 09:02:41;;;;;;;6.00;2.60;;;;;;;19.83;24.76;100524.13;4187727;28;20286;-75
2022/05/01 09:05:10;;;;;;;7.40;3.00;;;;;;;20.06;24.38;100518.34;4198703;28;23752;-72
2022/05/01 09:07:36;;;;;;;9.57;2.60;;;;;;;19.16;24.90;100523.00;4218913;28;21622;-72
2022/05/01 09:10:03;;;;;;;6.97;2.87;;;;;;;19.45;25.25;100518.34;4198947;28;20229;-77
2022/05/01 09:15:37;;;;;;;16.43;3.50;;;;;;;18.88;26.08;100510.38;4218666;28;20311;-73
2022/05/01 09:18:05;;;;;;;11.30;3.20;;;;;;;19.37;25.84;100504.00;4225083;28;20305;-73
2022/05/01 09:20:32;;;;;;;7.73;2.80;;;;;;;19.86;26.33;100506.69;4201568;28;20233;-69
2022/05/01 09:22:59;;;;;;;12.53;6.07;;;;;;;20.30;24.72;100508.84;4196732;28;25556;-74
2022/05/01 09:25:27;;;;;;;8.23;2.97;;;;;;;19.73;24.37;100512.88;4222402;28;20246;-73
2022/05/01 09:27:59;;;;;;;6.57;2.37;;;;;;;18.94;25.88;100506.91;4207545;28;20248;-77
2022/05/01 09:30:31;;;;;;;4.60;2.40;;;;;;;19.49;25.51;100511.53;4191590;28;20233;-71
2022/05/01 09:32:59;;;;;;;7.07;2.27;;;;;;;19.91;24.76;100506.91;4184332;28;20371;-76
2022/05/01 09:35:27;;;;;;;6.10;2.87;;;;;;;19.92;24.41;100500.47;4190068;28;20279;-70
2022/05/01 09:38:12;;;;;;;5.90;2.57;;;;;;;19.57;23.71;100497.84;4200982;28;20335;-74
2022/05/01 09:40:38;;;;;;;6.10;2.60;;;;;;;19.40;23.71;100503.59;4184982;28;20282;-74
2022/05/01 09:43:05;;;;;;;5.30;2.10;;;;;;;19.31;25.09;100498.56;4171684;28;21030;-74
2022/05/01 09:45:32;;;;;;;6.17;2.10;;;;;;;19.51;23.95;100502.19;4191582;28;20239;-74
2022/05/01 09:48:18;;;;;;;4.83;2.20;;;;;;;19.67;23.80;100503.69;4195385;28;26686;-74
2022/05/01 09:50:46;;;;;;;6.70;2.37;;;;;;;19.76;23.83;100497.13;4180771;28;20324;-73
2022/05/01 09:53:13;;;;;;;7.50;2.47;;;;;;;19.80;24.97;100492.94;4198437;28;20274;-75
2022/05/01 09:55:40;;;;;;;5.77;2.47;;;;;;;19.44;24.81;100492.41;4235101;28;20230;-75
2022/05/01 09:58:09;;;;;;;10.30;2.77;;;;;;;19.65;25.08;100494.97;4181898;28;20510;-74
2022/05/01 10:00:44;;;;;;;5.10;2.33;;;;;;;20.06;24.93;100488.63;4210824;28;20230;-73
2022/05/01 10:03:25;;;;;;;7.97;2.60;;;;;;;19.98;24.07;100488.84;4188026;28;25613;-73
2022/05/01 10:05:53;;;;;;;6.17;2.47;;;;;;;20.12;24.32;100485.13;4175701;28;20364;-74
2022/05/01 10:08:24;;;;;;;5.97;2.60;;;;;;;19.76;25.68;100483.63;4218303;28;20276;-73
2022/05/01 10:10:57;;;;;;;7.20;2.60;;;;;;;19.54;25.21;100487.44;4243627;28;20242;-72
2022/05/01 10:13:24;;;;;;;6.80;2.93;;;;;;;19.28;25.30;100485.47;4204977;28;20300;-72
2022/05/01 10:16:09;;;;;;;9.23;3.20;;;;;;;18.89;26.53;100474.28;4198855;28;25150;-72
2022/05/01 10:18:45;;;;;;;9.97;3.37;;;;;;;18.82;26.65;100476.09;4181183;28;23009;-74
2022/05/01 10:21:32;;;;;;;5.33;2.67;;;;;;;19.04;27.33;100467.94;4200451;28;20379;-73
2022/05/01 10:24:01;;;;;;;5.93;3.00;;;;;;;19.10;26.61;100467.13;4182070;28;20288;-74
2022/05/01 10:26:30;;;;;;;5.20;2.67;;;;;;;19.22;25.49;100457.41;4180803;28;20303;-76
2022/05/01 10:29:27;;;;;;;8.23;3.00;;;;;;;18.84;25.76;100455.16;4227547;28;20287;-73
2022/05/01 10:35:04;;;;;;;5.77;2.50;;;;;;;18.90;25.77;100461.66;4210363;28;20240;-75
2022/05/01 10:37:59;;;;;;;7.00;2.67;;;;;;;18.61;25.39;100449.19;4179950;28;20408;-73
2022/05/01 10:40:31;;;;;;;3.67;2.40;;;;;;;18.91;26.28;100449.81;4184411;28;20242;-73
2022/05/01 10:43:02;;;;;;;8.03;2.40;;;;;;;19.03;26.07;100450.91;4199617;28;20263;-79
2022/05/01 10:45:28;;;;;;;5.90;2.13;;;;;;;19.19;26.59;100442.47;4198413;28;20810;-76
2022/05/01 10:47:56;;;;;;;4.90;2.17;;;;;;;19.28;26.38;100445.84;4189352;28;20476;-72
2022/05/01 10:50:28;;;;;;;6.63;2.00;;;;;;;18.85;26.54;100447.94;4175992;28;22517;-69
2022/05/01 10:53:16;;;;;;;4.10;2.20;;;;;;;18.83;25.46;100441.91;4199871;28;20647;-75
2022/05/01 10:55:48;;;;;;;4.10;2.00;;;;;;;19.00;24.95;100445.94;4217129;28;21579;-74
2022/05/01 10:58:27;;;;;;;6.13;1.90;;;;;;;19.01;25.87;100439.50;4207261;28;23125;-73
2022/05/01 11:00:56;;;;;;;8.70;2.80;;;;;;;18.75;26.23;100429.38;4181094;28;20309;-74
2022/05/01 11:03:27;;;;;;;5.03;2.30;;;;;;;18.60;26.04;100429.50;4181346;28;20231;-71
2022/05/01 11:06:08;;;;;;;10.47;2.80;;;;;;;18.47;26.08;100427.56;4185434;28;20237;-71
2022/05/01 11:08:41;;;;;;;8.17;2.40;;;;;;;18.58;25.64;100428.03;4195497;28;22263;-72
2022/05/01 11:11:12;;;;;;;4.30;2.30;;;;;;;18.63;25.46;100433.66;4207893;28;20233;-70
2022/05/01 11:13:40;;;;;;;4.37;2.23;;;;;;;18.17;26.23;100426.06;4182468;28;21654;-75
2022/05/01 11:16:08;;;;;;;3.67;2.10;;;;;;;18.25;26.07;100424.06;4190531;28;20729;-71
2022/05/01 11:18:35;;;;;;;4.70;2.00;;;;;;;18.34;26.47;100428.28;4183453;28;21218;-72
2022/05/01 11:21:20;;;;;;;6.20;2.40;;;;;;;18.65;26.12;100428.91;4184693;28;20293;-73
2022/05/01 11:24:08;;;;;;;6.17;2.27;;;;;;;18.88;25.43;100423.25;4185124;28;20229;-72
2022/05/01 11:26:34;;;;;;;4.30;2.10;;;;;;;18.60;25.02;100431.38;4204435;28;20235;-72
2022/05/01 11:29:10;;;;;;;6.67;2.10;;;;;;;18.94;25.81;100434.09;4208421;28;20229;-71
2022/05/01 11:31:36;;;;;;;7.57;2.30;;;;;;;19.06;24.21;100423.56;4178255;28;22494;-72
2022/05/01 11:34:24;;;;;;;5.40;2.27;;;;;;;19.15;25.05;100414.25;4200722;28;20256;-73
2022/05/01 11:36:58;;;;;;;6.10;1.80;;;;;;;19.34;23.71;100423.44;4210824;28;20288;-72
2022/05/01 11:39:43;;;;;;;5.10;2.23;;;;;;;18.96;24.74;100415.84;4179738;28;20502;-71
2022/05/01 11:42:23;;;;;;;10.90;2.37;;;;;;;18.78;23.91;100423.63;4190081;28;20523;-73
2022/05/01 11:45:00;;;;;;;4.07;1.97;;;;;;;18.67;23.78;100416.06;4192304;28;20320;-72
2022/05/01 11:47:28;;;;;;;6.60;2.23;;;;;;;18.77;23.81;100414.69;4203853;28;21682;-71
2022/05/01 11:49:54;;;;;;;7.70;2.37;;;;;;;19.09;25.01;100414.22;4204553;28;20338;-72